Datum Uhrzeit Temperatur Luft Windgeschw. Regen Regen (1h) Temp (1h) Luftdruck Windrichtung Taupunkt Sensor
2021-12-03 22:50:00 5.2 95.0 13.6 0.6 0.0 0.2 SSW 0.0 Kombisensor
2021-12-03 22:45:00 5.1 95.0 10.4 0.6 0.0 0.1 SW 0.0 Kombisensor
2021-12-03 22:40:00 5.1 95.0 14.6 0.6 0.0 0.2 SSW 0.0 Kombisensor
2021-12-03 22:35:00 5.2 95.0 15.2 0.6 0.0 0.3 SW 0.0 Kombisensor
2021-12-03 22:30:00 5.2 95.0 12.9 0.6 0.0 0.3 SSW 0.0 Kombisensor
2021-12-03 22:25:00 5.2 95.0 14.7 0.6 0.0 0.3 SW 0.0 Kombisensor
2021-12-03 22:20:00 5.2 95.0 15.6 0.6 0.0 0.3 SSW 0.0 Kombisensor
2021-12-03 22:15:00 5.2 95.0 16.7 0.6 0.0 0.3 SW 0.0 Kombisensor
2021-12-03 22:10:00 5.1 95.0 16.3 0.6 0.0 0.2 SW 0.0 Kombisensor
2021-12-03 22:05:00 5.1 95.0 14.1 0.6 0.0 0.2 SW 0.0 Kombisensor
2021-12-03 22:00:00 5.1 95.0 15.4 0.6 0.0 0.2 SW 0.0 Kombisensor
2021-12-03 21:55:00 5.0 95.0 13.0 0.6 0.0 0.0 SSW 0.0 Kombisensor
2021-12-03 21:50:00 5.0 95.0 13.2 0.6 0.0 0.0 SSW 0.0 Kombisensor
2021-12-03 21:45:00 5.0 95.0 17.4 0.6 0.0 0.0 SSW 0.0 Kombisensor
2021-12-03 21:40:00 4.9 95.0 13.1 0.6 0.0 -0.1 SW 0.0 Kombisensor
2021-12-03 21:35:00 4.9 94.0 16.4 0.6 0.0 -0.1 SW 0.0 Kombisensor
2021-12-03 21:30:00 4.9 94.0 14.5 0.6 0.0 0.0 SW 0.0 Kombisensor
2021-12-03 21:25:00 4.9 94.0 17.0 0.6 0.0 0.1 SW 0.0 Kombisensor
2021-12-03 21:20:00 4.9 94.0 16.8 0.6 0.0 0.2 SSW 0.0 Kombisensor
2021-12-03 21:15:00 4.9 94.0 17.8 0.6 0.0 0.4 SW 0.0 Kombisensor
2021-12-03 21:10:00 4.9 94.0 17.1 0.6 0.0 0.4 SW 0.0 Kombisensor
2021-12-03 21:05:00 4.9 94.0 15.6 0.6 0.0 0.5 SW 0.0 Kombisensor
2021-12-03 21:00:00 4.9 94.0 17.6 0.6 0.0 0.5 SSW 0.0 Kombisensor
2021-12-03 20:55:00 5.0 94.0 17.6 0.6 0.0 0.7 SW 0.0 Kombisensor
2021-12-03 20:50:00 5.0 94.0 17.1 0.6 0.0 0.8 SW 0.0 Kombisensor
2021-12-03 20:45:00 5.0 94.0 13.7 0.6 0.0 0.8 SW 0.0 Kombisensor
2021-12-03 20:40:00 5.0 94.0 16.9 0.6 0.0 0.8 SW 0.0 Kombisensor
2021-12-03 20:35:00 5.0 94.0 17.1 0.6 0.0 0.8 SSW 0.0 Kombisensor
2021-12-03 20:30:00 4.9 94.0 18.2 0.6 0.0 0.9 SSW 0.0 Kombisensor
2021-12-03 20:25:00 4.8 94.0 16.7 0.6 0.0 0.8 SW 0.0 Kombisensor
2021-12-03 20:20:00 4.7 94.0 15.2 0.6 0.0 0.7 SW 0.0 Kombisensor
2021-12-03 20:15:00 4.5 94.0 11.6 0.6 0.0 0.6 SSW 0.0 Kombisensor
2021-12-03 20:10:00 4.5 94.0 12.1 0.6 0.0 0.6 SW 0.0 Kombisensor
2021-12-03 20:05:00 4.4 94.0 15.8 0.6 0.0 0.5 WSW 0.0 Kombisensor
2021-12-03 20:00:00 4.4 94.0 12.3 0.6 0.0 0.5 SW 0.0 Kombisensor
2021-12-03 19:55:00 4.3 94.0 8.3 0.6 0.0 0.5 SW 0.0 Kombisensor
2021-12-03 19:50:00 4.2 94.0 10.5 0.6 0.0 0.4 W 0.0 Kombisensor
2021-12-03 19:45:00 4.2 94.0 9.9 0.6 0.0 0.5 SW 0.0 Kombisensor
2021-12-03 19:40:00 4.2 94.0 19.6 0.6 0.0 0.6 WSW 0.0 Kombisensor
2021-12-03 19:35:00 4.2 94.0 31.0 0.6 0.0 0.7 SW 0.0 Kombisensor
2021-12-03 19:30:00 4.0 94.0 20.8 0.6 0.0 0.6 SW 0.0 Kombisensor
2021-12-03 19:25:00 4.0 94.0 30.5 0.6 0.0 0.6 SSW 0.0 Kombisensor
2021-12-03 19:20:00 4.0 94.0 24.5 0.6 0.0 0.7 SW 0.0 Kombisensor
2021-12-03 19:15:00 3.9 94.0 24.9 0.6 0.0 0.8 SW 0.0 Kombisensor
2021-12-03 19:10:00 3.9 94.0 24.4 0.6 0.0 0.9 SW 0.0 Kombisensor
2021-12-03 19:05:00 3.9 94.0 24.3 0.6 0.0 1.0 SW 0.0 Kombisensor
2021-12-03 19:00:00 3.9 94.0 28.3 0.6 0.0 1.0 SSW 0.0 Kombisensor
2021-12-03 18:55:00 3.8 94.0 19.3 0.6 0.0 1.2 SW 0.0 Kombisensor
2021-12-03 18:50:00 3.8 94.0 30.8 0.6 0.0 1.5 SW 0.0 Kombisensor
2021-12-03 18:45:00 3.7 94.0 31.7 0.6 0.0 2.0 SSW 0.0 Kombisensor
2021-12-03 18:40:00 3.6 94.0 21.4 0.6 0.0 2.5 SSW 0.0 Kombisensor
2021-12-03 18:35:00 3.5 94.0 27.1 0.6 0.0 2.6 SSW 0.0 Kombisensor
2021-12-03 18:30:00 3.4 94.0 35.2 0.6 0.0 2.6 SW 0.0 Kombisensor
2021-12-03 18:25:00 3.4 94.0 24.4 0.6 0.0 2.6 SW 0.0 Kombisensor
2021-12-03 18:20:00 3.3 95.0 23.5 0.6 0.0 2.5 SSW 0.0 Kombisensor
2021-12-03 18:15:00 3.1 95.0 23.0 0.6 0.0 2.3 SSW 0.0 Kombisensor
2021-12-03 18:10:00 3.0 95.0 26.9 0.6 0.0 2.0 SSW 0.0 Kombisensor
2021-12-03 18:05:00 2.9 95.0 30.8 0.6 0.0 1.9 SSW 0.0 Kombisensor
2021-12-03 18:00:00 2.9 95.0 23.1 0.6 0.0 1.9 SSW 0.0 Kombisensor
2021-12-03 17:55:00 2.6 95.0 27.5 0.6 0.0 1.6 SSW 0.0 Kombisensor
2021-12-03 17:50:00 2.3 95.0 38.5 0.6 0.0 1.2 SSW 0.0 Kombisensor
2021-12-03 17:45:00 1.7 95.0 17.3 0.6 0.0 0.5 SSW 0.0 Kombisensor
2021-12-03 17:40:00 1.1 94.0 19.7 0.6 0.0 -0.2 S 0.0 Kombisensor
2021-12-03 17:35:00 0.9 94.0 16.5 0.6 0.0 -0.4 S 0.0 Kombisensor
2021-12-03 17:30:00 0.8 94.0 25.4 0.6 0.0 -0.6 S 0.0 Kombisensor
2021-12-03 17:25:00 0.8 94.0 19.0 0.6 0.0 -0.7 S 0.0 Kombisensor
2021-12-03 17:20:00 0.8 94.0 21.0 0.6 0.0 -0.7 S 0.0 Kombisensor
2021-12-03 17:15:00 0.8 94.0 17.6 0.6 0.0 -0.8 SSW 0.0 Kombisensor
2021-12-03 17:10:00 1.0 94.0 19.9 0.6 0.0 -0.6 SSW 0.0 Kombisensor
2021-12-03 17:05:00 1.0 94.0 15.6 0.6 0.0 -0.7 S 0.0 Kombisensor
2021-12-03 17:00:00 1.0 94.0 21.5 0.6 0.0 -0.7 SSW 0.0 Kombisensor
2021-12-03 16:55:00 1.0 93.0 26.3 0.6 0.0 -0.9 SSW 0.0 Kombisensor
2021-12-03 16:50:00 1.1 93.0 16.7 0.6 0.0 -0.9 SSW 0.0 Kombisensor
2021-12-03 16:45:00 1.2 93.0 29.4 0.6 0.0 -1.0 S 0.0 Kombisensor
2021-12-03 16:40:00 1.3 93.0 24.6 0.6 0.0 -1.0 S 0.0 Kombisensor
2021-12-03 16:35:00 1.3 93.0 24.6 0.6 0.0 -1.0 SSW 0.0 Kombisensor
2021-12-03 16:30:00 1.4 93.0 18.2 0.6 0.0 -1.0 SSW 0.0 Kombisensor
2021-12-03 16:25:00 1.5 93.0 30.6 0.6 0.0 -0.9 SSW 0.0 Kombisensor
2021-12-03 16:20:00 1.5 93.0 25.6 0.6 0.0 -1.0 SSW 0.0 Kombisensor
2021-12-03 16:15:00 1.6 93.0 22.9 0.6 0.0 -0.9 SSW 0.0 Kombisensor
2021-12-03 16:10:00 1.6 93.0 26.7 0.6 0.0 -0.9 SSW 0.0 Kombisensor
2021-12-03 16:05:00 1.7 92.0 24.5 0.6 0.0 -0.9 SSW 0.0 Kombisensor
2021-12-03 16:00:00 1.7 92.0 20.8 0.6 0.0 -0.9 SSW 0.0 Kombisensor
2021-12-03 15:55:00 1.9 92.0 25.9 0.6 0.0 -0.8 S 0.0 Kombisensor
2021-12-03 15:50:00 2.0 92.0 22.7 0.6 0.0 -0.7 S 0.0 Kombisensor
2021-12-03 15:45:00 2.2 92.0 18.6 0.6 0.0 -0.4 SSW 0.0 Kombisensor
2021-12-03 15:40:00 2.3 92.0 28.3 0.6 0.0 -0.3 SSW 0.0 Kombisensor
2021-12-03 15:35:00 2.3 92.0 29.4 0.6 0.0 -0.3 SSW 0.0 Kombisensor
2021-12-03 15:30:00 2.4 92.0 23.8 0.6 0.0 -0.2 SSW 0.0 Kombisensor
2021-12-03 15:25:00 2.4 92.0 31.0 0.6 0.0 -0.4 SSW 0.0 Kombisensor
2021-12-03 15:20:00 2.5 92.0 22.3 0.6 0.0 -0.4 SSW 0.0 Kombisensor
2021-12-03 15:15:00 2.5 92.0 21.9 0.6 0.0 -0.4 SSW 0.0 Kombisensor
2021-12-03 15:10:00 2.5 92.0 23.6 0.6 0.0 -0.5 SSW 0.0 Kombisensor
2021-12-03 15:05:00 2.6 92.0 22.3 0.6 0.0 -0.4 SSW 0.0 Kombisensor
2021-12-03 15:00:00 2.6 91.0 21.0 0.6 0.0 -0.5 SSW 0.0 Kombisensor
2021-12-03 14:55:00 2.7 91.0 21.9 0.6 0.0 -0.5 SSW 0.0 Kombisensor
2021-12-03 14:50:00 2.7 91.0 24.4 0.6 0.0 -0.5 SSW 0.0 Kombisensor
2021-12-03 14:45:00 2.6 91.0 20.8 0.6 0.0 -0.4 S 0.0 Kombisensor
2021-12-03 14:40:00 2.6 91.0 21.6 0.6 0.0 -0.3 S 0.0 Kombisensor
2021-12-03 14:35:00 2.6 91.0 23.7 0.6 0.0 -0.2 SSW 0.0 Kombisensor
2021-12-03 14:30:00 2.6 90.0 21.0 0.6 0.0 0.0 S 0.0 Kombisensor
2021-12-03 14:25:00 2.8 90.0 19.4 0.6 0.0 0.3 S 0.0 Kombisensor
2021-12-03 14:20:00 2.9 90.0 22.4 0.6 0.0 0.5 SSW 0.0 Kombisensor
2021-12-03 14:15:00 2.9 90.0 16.6 0.6 0.0 0.7 SSW 0.0 Kombisensor
2021-12-03 14:10:00 3.0 90.0 20.8 0.6 0.0 0.9 SSW 0.0 Kombisensor
2021-12-03 14:05:00 3.0 90.0 26.4 0.6 0.0 0.7 SW 0.0 Kombisensor
2021-12-03 14:00:00 3.1 90.0 32.1 0.6 0.0 0.7 SW 0.0 Kombisensor
2021-12-03 13:55:00 3.2 91.0 21.3 0.6 0.0 0.2 SW 0.0 Kombisensor
2021-12-03 13:50:00 3.2 92.0 18.7 0.6 0.0 0.2 SSW 0.0 Kombisensor
2021-12-03 13:45:00 3.0 92.0 27.4 0.6 0.0 0.1 SSW 0.0 Kombisensor
2021-12-03 13:40:00 2.9 92.0 17.5 0.6 0.0 0.0 SW 0.0 Kombisensor
2021-12-03 13:35:00 2.8 92.0 26.9 0.6 0.0 0.1 SSW 0.0 Kombisensor
2021-12-03 13:30:00 2.6 92.0 14.9 0.6 0.0 0.0 SSW 0.0 Kombisensor
2021-12-03 13:25:00 2.5 92.0 16.9 0.6 0.0 -0.1 SSW 0.0 Kombisensor
2021-12-03 13:20:00 2.4 92.0 22.7 0.6 0.0 -0.2 SW 0.0 Kombisensor
2021-12-03 13:15:00 2.2 93.0 22.8 0.6 0.0 -0.3 SSW 0.0 Kombisensor
2021-12-03 13:10:00 2.1 92.0 17.8 0.6 0.0 -0.4 SW 0.0 Kombisensor
2021-12-03 13:05:00 2.3 92.0 14.9 0.6 0.0 -0.1 SW 0.0 Kombisensor
2021-12-03 13:00:00 2.4 92.0 18.9 0.6 0.0 0.0 SW 0.0 Kombisensor
2021-12-03 12:55:00 3.0 93.0 17.6 0.6 0.0 0.6 SW 0.0 Kombisensor
2021-12-03 12:50:00 3.0 93.0 21.0 0.6 0.0 0.7 SSW 0.0 Kombisensor
2021-12-03 12:45:00 2.9 93.0 22.1 0.6 0.0 0.6 SSW 0.0 Kombisensor
2021-12-03 12:40:00 2.9 93.0 22.2 0.6 0.0 0.6 SSW 0.0 Kombisensor
2021-12-03 12:35:00 2.7 93.0 19.7 0.6 0.0 0.5 SW 0.0 Kombisensor
2021-12-03 12:30:00 2.6 93.0 15.8 0.6 0.0 0.4 SSW 0.0 Kombisensor
2021-12-03 12:25:00 2.6 93.0 19.2 0.6 0.0 0.3 SW 0.0 Kombisensor
2021-12-03 12:20:00 2.6 93.0 17.8 0.6 0.0 0.3 SSW 0.0 Kombisensor
2021-12-03 12:15:00 2.5 93.0 17.1 0.6 0.0 0.1 SSW 0.0 Kombisensor
2021-12-03 12:10:00 2.5 93.0 15.7 0.6 0.0 0.1 SSW 0.0 Kombisensor
2021-12-03 12:05:00 2.4 93.0 15.9 0.6 0.0 0.0 SSW 0.0 Kombisensor
2021-12-03 12:00:00 2.4 93.0 11.5 0.6 0.0 -0.1 SSW 0.0 Kombisensor
2021-12-03 11:55:00 2.4 93.0 12.9 0.6 0.0 -0.1 S 0.0 Kombisensor
2021-12-03 11:50:00 2.3 93.0 14.0 0.6 0.0 -0.3 SSW 0.0 Kombisensor
2021-12-03 11:45:00 2.3 93.0 16.9 0.6 0.0 -0.4 SSW 0.0 Kombisensor
2021-12-03 11:40:00 2.3 93.0 16.2 0.6 0.0 -0.4 S 0.0 Kombisensor
2021-12-03 11:35:00 2.2 93.0 12.2 0.6 0.0 -0.5 S 0.0 Kombisensor
2021-12-03 11:30:00 2.2 93.0 15.6 0.6 0.0 -0.4 SSW 0.0 Kombisensor
2021-12-03 11:25:00 2.3 92.0 14.3 0.6 0.0 0.0 S 0.0 Kombisensor
2021-12-03 11:20:00 2.3 92.0 13.8 0.6 0.0 0.2 S 0.0 Kombisensor
2021-12-03 11:15:00 2.4 92.0 13.2 0.6 0.0 0.3 S 0.0 Kombisensor
2021-12-03 11:10:00 2.4 92.0 10.3 0.6 0.0 0.3 S 0.0 Kombisensor
2021-12-03 11:05:00 2.4 92.0 8.9 0.6 0.0 0.3 SSW 0.0 Kombisensor
2021-12-03 11:00:00 2.5 92.0 12.5 0.6 0.0 0.4 S 0.0 Kombisensor
2021-12-03 10:55:00 2.5 92.0 10.5 0.6 0.0 0.3 SSW 0.0 Kombisensor
2021-12-03 10:50:00 2.6 92.0 14.6 0.6 0.0 0.5 SSW 0.0 Kombisensor
2021-12-03 10:45:00 2.7 92.0 15.7 0.6 0.0 0.7 SW 0.0 Kombisensor
2021-12-03 10:40:00 2.7 92.0 25.1 0.6 0.0 0.7 SW 0.0 Kombisensor
2021-12-03 10:35:00 2.7 92.0 20.0 0.6 0.0 0.8 SW 0.0 Kombisensor
2021-12-03 10:30:00 2.6 93.0 15.7 0.6 0.0 0.7 SW 0.0 Kombisensor
2021-12-03 10:25:00 2.3 93.0 10.2 0.6 0.0 0.5 SW 0.0 Kombisensor
2021-12-03 10:20:00 2.1 93.0 13.6 0.6 0.0 0.4 SSW 0.0 Kombisensor
2021-12-03 10:15:00 2.1 93.0 9.5 0.6 0.0 0.6 S 0.0 Kombisensor
2021-12-03 10:10:00 2.1 92.0 10.3 0.6 0.0 0.6 SSW 0.0 Kombisensor
2021-12-03 10:05:00 2.1 92.0 9.4 0.6 0.0 0.6 S 0.0 Kombisensor
2021-12-03 10:00:00 2.1 92.0 9.0 0.6 0.0 0.7 S 0.0 Kombisensor
2021-12-03 09:55:00 2.2 92.0 7.6 0.6 0.0 0.8 S 0.0 Kombisensor
2021-12-03 09:50:00 2.1 92.0 7.6 0.6 0.0 0.7 SSW 0.0 Kombisensor
2021-12-03 09:45:00 2.0 93.0 7.6 0.6 0.0 0.6 SSW 0.0 Kombisensor
2021-12-03 09:40:00 2.0 93.0 9.5 0.6 0.0 0.5 SW 0.0 Kombisensor
2021-12-03 09:35:00 1.9 93.0 8.7 0.6 0.0 0.3 SSW 0.0 Kombisensor
2021-12-03 09:30:00 1.9 93.0 11.4 0.6 0.0 0.3 SSW 0.0 Kombisensor
2021-12-03 09:25:00 1.8 93.0 10.9 0.6 0.0 0.1 SSW 0.0 Kombisensor
2021-12-03 09:20:00 1.7 93.0 9.7 0.6 0.0 -0.2 SSW 0.0 Kombisensor
2021-12-03 09:15:00 1.5 93.0 10.3 0.6 0.0 -0.1 S 0.0 Kombisensor
2021-12-03 09:10:00 1.5 92.0 7.5 0.6 0.0 0.2 S 0.0 Kombisensor
2021-12-03 09:05:00 1.5 92.0 8.1 0.6 0.0 0.2 SSW 0.0 Kombisensor
2021-12-03 09:00:00 1.4 92.0 7.1 0.6 0.0 0.1 S 0.0 Kombisensor
2021-12-03 08:55:00 1.4 92.0 6.9 0.6 0.0 0.1 S 0.0 Kombisensor
2021-12-03 08:50:00 1.4 92.0 5.1 0.6 0.0 0.1 SSW 0.0 Kombisensor
2021-12-03 08:45:00 1.4 91.0 6.1 0.6 0.0 0.1 S 0.0 Kombisensor
2021-12-03 08:40:00 1.5 91.0 7.8 0.6 0.0 0.2 SSW 0.0 Kombisensor
2021-12-03 08:35:00 1.6 91.0 8.9 0.6 0.0 0.2 S 0.0 Kombisensor
2021-12-03 08:30:00 1.6 91.0 8.6 0.6 0.0 0.1 SSW 0.0 Kombisensor
2021-12-03 08:25:00 1.7 90.0 10.4 0.6 0.0 0.1 SSW 0.0 Kombisensor
2021-12-03 08:20:00 1.9 91.0 20.6 0.6 0.0 0.2 SSW 0.0 Kombisensor
2021-12-03 08:15:00 1.6 91.0 22.2 0.6 0.0 -0.2 SW 0.0 Kombisensor
2021-12-03 08:10:00 1.3 91.0 9.2 0.6 0.0 -0.5 SW 0.0 Kombisensor
2021-12-03 08:05:00 1.3 91.0 9.1 0.6 0.0 -0.6 SSW 0.0 Kombisensor
2021-12-03 08:00:00 1.3 91.0 11.8 0.6 0.0 -0.6 SSW 0.0 Kombisensor
2021-12-03 07:55:00 1.3 91.0 13.5 0.6 0.0 -0.6 S 0.0 Kombisensor
2021-12-03 07:50:00 1.3 91.0 10.6 0.6 0.0 -0.7 S 0.0 Kombisensor
2021-12-03 07:45:00 1.3 91.0 11.2 0.6 0.0 -0.7 SSW 0.0 Kombisensor
2021-12-03 07:40:00 1.3 91.0 10.9 0.6 0.0 -0.6 SSW 0.0 Kombisensor
2021-12-03 07:35:00 1.4 91.0 7.6 0.6 0.0 -0.4 S 0.0 Kombisensor
2021-12-03 07:30:00 1.5 90.0 4.9 0.6 0.0 -0.2 S 0.0 Kombisensor
2021-12-03 07:25:00 1.6 90.0 0.0 0.6 0.0 0.0 S 0.0 Kombisensor
2021-12-03 07:20:00 1.7 90.0 0.0 0.6 0.0 0.0 SSW 0.0 Kombisensor
2021-12-03 07:15:00 1.8 90.0 0.0 0.6 0.0 0.0 SSW 0.0 Kombisensor
2021-12-03 07:10:00 1.8 90.0 5.5 0.6 0.0 0.2 SSW 0.0 Kombisensor
2021-12-03 07:05:00 1.9 90.0 7.5 0.6 0.0 0.4 SW 0.0 Kombisensor
2021-12-03 07:00:00 1.9 90.0 7.2 0.6 0.0 0.4 WSW 0.0 Kombisensor
2021-12-03 06:55:00 1.9 90.0 6.9 0.6 0.0 0.3 WSW 0.0 Kombisensor
2021-12-03 06:50:00 2.0 90.0 12.0 0.6 0.0 0.4 SW 0.0 Kombisensor
2021-12-03 06:45:00 2.0 90.0 10.0 0.6 0.0 0.3 SW 0.0 Kombisensor
2021-12-03 06:40:00 1.9 90.0 10.8 0.6 0.0 0.3 SW 0.0 Kombisensor
2021-12-03 06:35:00 1.8 91.0 11.2 0.6 0.0 0.3 SW 0.0 Kombisensor
2021-12-03 06:30:00 1.7 91.0 9.5 0.6 0.0 0.2 WSW 0.0 Kombisensor
2021-12-03 06:25:00 1.6 91.0 8.7 0.6 0.0 0.1 W 0.0 Kombisensor
2021-12-03 06:20:00 1.7 90.0 13.1 0.6 0.0 0.3 W 0.0 Kombisensor
2021-12-03 06:15:00 1.8 90.0 17.9 0.6 0.0 0.4 WSW 0.0 Kombisensor
2021-12-03 06:10:00 1.6 90.0 26.5 0.6 0.0 0.3 W 0.0 Kombisensor
2021-12-03 06:05:00 1.5 90.0 5.4 0.6 0.0 0.2 SW 0.0 Kombisensor
2021-12-03 06:00:00 1.5 90.0 4.0 0.6 0.0 0.2 SW 0.0 Kombisensor
2021-12-03 05:55:00 1.6 90.0 8.2 0.6 0.0 0.5 SW 0.0 Kombisensor
2021-12-03 05:50:00 1.6 90.0 9.0 0.6 0.0 0.5 SW 0.0 Kombisensor
2021-12-03 05:45:00 1.7 90.0 10.9 0.6 0.0 0.6 SW 0.0 Kombisensor
2021-12-03 05:40:00 1.6 90.0 13.8 0.6 0.0 0.4 SW 0.0 Kombisensor
2021-12-03 05:35:00 1.5 90.0 13.1 0.6 0.0 0.3 SSW 0.0 Kombisensor
2021-12-03 05:30:00 1.5 91.0 11.2 0.6 0.0 0.3 SW 0.0 Kombisensor
2021-12-03 05:25:00 1.5 91.0 13.6 0.6 0.0 0.4 SW 0.0 Kombisensor
2021-12-03 05:20:00 1.4 91.0 9.3 0.6 0.0 0.3 SW 0.0 Kombisensor
2021-12-03 05:15:00 1.4 91.0 11.1 0.6 0.0 0.2 SW 0.0 Kombisensor
2021-12-03 05:10:00 1.3 91.0 8.3 0.6 0.0 0.0 SW 0.0 Kombisensor
2021-12-03 05:05:00 1.3 91.0 10.2 0.6 0.0 0.0 WSW 0.0 Kombisensor
2021-12-03 05:00:00 1.3 91.0 12.9 0.6 0.0 -0.1 W 0.0 Kombisensor
2021-12-03 04:55:00 1.1 91.0 7.9 0.6 0.0 -0.3 SW 0.0 Kombisensor
2021-12-03 04:50:00 1.1 91.0 4.8 0.6 0.0 -0.4 SSW 0.0 Kombisensor
2021-12-03 04:45:00 1.1 91.0 0.0 0.6 0.0 -0.3 SSW 0.0 Kombisensor
2021-12-03 04:40:00 1.2 91.0 5.2 0.6 0.0 0.0 SSW 0.0 Kombisensor
2021-12-03 04:35:00 1.2 91.0 7.0 0.6 0.0 0.2 SSW 0.0 Kombisensor
2021-12-03 04:30:00 1.2 91.0 5.5 0.6 0.0 0.3 SW 0.0 Kombisensor
2021-12-03 04:25:00 1.1 91.0 5.4 0.6 0.0 0.4 SW 0.0 Kombisensor
2021-12-03 04:20:00 1.1 91.0 0.0 0.6 0.0 0.5 SW 0.0 Kombisensor
2021-12-03 04:15:00 1.2 91.0 0.0 0.6 0.0 0.5 SW 0.0 Kombisensor
2021-12-03 04:10:00 1.3 91.0 4.4 0.6 0.0 0.4 SW 0.0 Kombisensor
2021-12-03 04:05:00 1.3 90.0 0.0 0.6 0.0 0.1 SW 0.0 Kombisensor
2021-12-03 04:00:00 1.4 90.0 9.4 0.6 0.0 -0.1 WSW 0.0 Kombisensor
2021-12-03 03:55:00 1.4 90.0 10.5 0.6 0.0 -0.1 W 0.0 Kombisensor
2021-12-03 03:50:00 1.5 90.0 13.7 0.6 0.0 0.0 WSW 0.0 Kombisensor
2021-12-03 03:45:00 1.4 90.0 12.3 0.6 0.0 -0.1 W 0.0 Kombisensor
2021-12-03 03:40:00 1.2 90.0 10.3 0.6 0.0 -0.3 SW 0.0 Kombisensor
2021-12-03 03:35:00 1.0 90.0 12.5 0.6 0.0 -0.5 SW 0.0 Kombisensor
2021-12-03 03:30:00 0.9 91.0 10.5 0.6 0.0 -0.6 SW 0.0 Kombisensor
2021-12-03 03:25:00 0.7 90.0 10.5 0.6 0.0 -0.8 SW 0.0 Kombisensor
2021-12-03 03:20:00 0.6 90.0 8.0 0.6 0.0 -0.9 SW 0.0 Kombisensor
2021-12-03 03:15:00 0.7 90.0 8.5 0.6 0.0 -0.8 SSW 0.0 Kombisensor
2021-12-03 03:10:00 0.9 89.0 7.3 0.6 0.0 -0.6 SSW 0.0 Kombisensor
2021-12-03 03:05:00 1.2 89.0 7.4 0.6 0.0 -0.3 SSW 0.0 Kombisensor
2021-12-03 03:00:00 1.5 89.0 9.9 0.6 0.0 0.0 SW 0.0 Kombisensor
2021-12-03 02:55:00 1.5 89.0 9.2 0.6 0.0 0.0 SW 0.0 Kombisensor
2021-12-03 02:50:00 1.5 89.0 8.7 0.6 0.0 -0.1 WSW 0.0 Kombisensor
2021-12-03 02:45:00 1.5 89.0 8.8 0.6 0.0 0.0 WSW 0.0 Kombisensor
2021-12-03 02:40:00 1.5 89.0 10.2 0.6 0.0 0.0 SW 0.0 Kombisensor
2021-12-03 02:35:00 1.5 89.0 9.1 0.6 0.0 -0.1 SSW 0.0 Kombisensor
2021-12-03 02:30:00 1.5 89.0 7.3 0.6 0.0 -0.1 SW 0.0 Kombisensor
2021-12-03 02:25:00 1.5 89.0 8.7 0.6 0.0 0.0 SW 0.0 Kombisensor
2021-12-03 02:20:00 1.5 89.0 8.2 0.6 0.0 0.0 WSW 0.0 Kombisensor
2021-12-03 02:15:00 1.5 89.0 8.8 0.6 0.0 0.0 WSW 0.0 Kombisensor
2021-12-03 02:10:00 1.5 88.0 11.2 0.6 0.0 0.0 WSW 0.0 Kombisensor
2021-12-03 02:05:00 1.5 88.0 7.7 0.6 0.0 -0.1 WSW 0.0 Kombisensor
2021-12-03 02:00:00 1.5 88.0 9.2 0.6 0.0 -0.2 WSW 0.0 Kombisensor
2021-12-03 01:55:00 1.5 87.0 8.1 0.6 0.0 -0.2 SW 0.0 Kombisensor
2021-12-03 01:50:00 1.6 87.0 9.4 0.6 0.0 -0.2 WSW 0.0 Kombisensor
2021-12-03 01:45:00 1.5 87.0 8.0 0.6 0.0 -0.4 WSW 0.0 Kombisensor
2021-12-03 01:40:00 1.5 87.0 9.6 0.6 0.0 -0.4 W 0.0 Kombisensor
2021-12-03 01:35:00 1.6 87.0 11.8 0.6 0.0 0.1 WSW 0.0 Kombisensor
2021-12-03 01:30:00 1.6 87.0 13.0 0.6 0.0 0.4 WSW 0.0 Kombisensor
2021-12-03 01:25:00 1.5 87.0 9.1 0.6 0.0 0.4 WSW 0.0 Kombisensor
2021-12-03 01:20:00 1.5 88.0 12.1 0.6 0.0 0.5 W 0.0 Kombisensor
2021-12-03 01:15:00 1.5 88.0 8.3 0.6 0.0 0.5 WSW 0.0 Kombisensor
2021-12-03 01:10:00 1.5 89.0 9.7 0.6 0.0 0.5 WSW 0.0 Kombisensor
2021-12-03 01:05:00 1.6 89.0 8.4 0.6 0.0 0.6 SW 0.0 Kombisensor
2021-12-03 01:00:00 1.7 89.0 11.6 0.6 0.0 0.7 W 0.0 Kombisensor
2021-12-03 00:55:00 1.7 89.0 10.0 0.6 0.0 -0.1 WSW 0.0 Kombisensor
2021-12-03 00:50:00 1.8 89.0 9.8 0.6 0.0 -0.1 WSW 0.0 Kombisensor
2021-12-03 00:45:00 1.9 89.0 13.7 0.6 0.0 0.0 W 0.0 Kombisensor
2021-12-03 00:40:00 1.9 89.0 17.8 0.6 0.0 0.4 W 0.0 Kombisensor
2021-12-03 00:35:00 1.5 90.0 11.7 0.6 0.0 0.3 WSW 0.0 Kombisensor
2021-12-03 00:30:00 1.2 90.0 7.4 0.6 0.0 0.1 WSW 0.0 Kombisensor
2021-12-03 00:25:00 1.1 90.0 13.5 0.6 0.0 0.1 SW 0.0 Kombisensor
2021-12-03 00:20:00 1.0 90.0 11.6 0.6 0.0 0.0 SW 0.0 Kombisensor
2021-12-03 00:15:00 1.0 91.0 13.0 0.6 0.0 0.0 SW 0.0 Kombisensor
2021-12-03 00:10:00 1.0 91.0 11.9 0.6 0.0 0.0 SW 0.0 Kombisensor
2021-12-03 00:05:00 1.0 91.0 12.2 0.6 0.0 0.0 SSW 0.0 Kombisensor
2021-12-03 00:00:00 1.0 91.0 13.3 0.6 0.0 0.0 SW 0.0 Kombisensor